Terminal Aerodrome Forecast
Issued by NWS

Home | Current Version | Previous Version | Text Only | Print | Product List | Glossary On
Versions: 1 2 3 4 5 6 7 8 9 10 11 12 13 14 15 16 17 18
000
FTUS44 KCRP 231700
TAFALI
TAF
KALI 231734Z 2318/2418 16012KT P6SM BKN035
     FM231930 14017G23KT P6SM SCT035
     FM240200 14012KT P6SM SCT015 SCT250
     FM240500 15011KT P6SM OVC012
     FM240800 16008KT P6SM OVC007
      TEMPO 2409/2413 5SM BR
     FM241500 15012KT P6SM BKN015=

USA.gov is the U.S. government's official web portal to all federal, state and local government web resources and services.